Etusivu
METAR-TAF:

METAR-TAF

Lentoasemat :

Abumusa, Iran

Leveyspiiri: 25-52-33N, Pituuspiiri: 055-02-01E, korkeus merenpinnasta: 7 m

Tämänhetkinen sää

Tämä raportti tehtiin 26 minuuttia sitten, kello 13.00 UTC
Tuuli 4 kn lännestä/luoteesta
Lämpötila 26°C
Kosteus 61%
Ilmanpaine 1011 hPa
Näkyvyys: 5000 m
usvaa

METAR: OIBA 201300Z 30004KT 5000 HZ NSC 26/18 Q1011

Aika: 16:56 (13:26 UTC)


TAF: puuttuu

Säähavainnot ja -ennusteet yli 4000 lentoasemalta (METAR- ja TAF-raportit).

Käytössä olevat sääasemat on merkitty karttaan keltaisilla ja punaisilla pisteillä.

Aseta hiiri pisteen päälle nähdäksesi sääaseman nimen.

Klikkaa sitten nähdäksesi säähavainnot ja -ennusteet.

Kartan vaihtaminen: klikkaa mustalla rastilla varustettuja vihreitä pisteitä, niin voit zoomata sisään; viivalla varustettua vihreää pistettä, niin voit zoomata ulos tai vihreitä nuolia, niin pääset viereisille kartoille.


METAR-TAF: